コルドバ の空港の天気 - METARとTAF

コルドバ空港 ( SACO / COR ) - アルゼンチン コルドバ州コルドバ
飛行場実況気象(Metar)
観測時間02/05 18:00 ART (02/05 21:00 UTC)
風向・風速北東 6m/s
視程10km以上
天気現象
なし
気温30℃
湿度43%
気圧1009hPa
METARSACO 052100Z 05011KT CAVOK 30/16 Q1009 NOSIG RMK PP000
過去の天気等 Google飛行場航空写真 Wunderground天気予報

過去48時間のMETAR

飛行場予報(TAF)
発表時間: 2/05 14:00 ART (2/05 17:00 UTC)
予報対象時間: 5日15時 ART ~ 6日15時 ART
風向・風速北東 5m/s
視程10km以上
少しの雲 雲底高度 1520m
5日21時 ART ~ 5日24時 ART に徐々に
風向・風速北西 3m/s
視程10km以上
なし
TAF SACO 051700Z 0518/0618 05010KT 9999 FEW050 TX34/0618Z TN18/0610Z
BECMG 0600/0603 32005KT CAVOK